MST,Max TemperatureF,Mean TemperatureF,Min TemperatureF,Max Dew PointF,MeanDew PointF,Min DewpointF,Max Humidity, Mean Humidity, Min Humidity, Max Sea Level PressureIn, Mean Sea Level PressureIn, Min Sea Level PressureIn, Max VisibilityMiles, Mean VisibilityMiles, Min VisibilityMiles, Max Wind SpeedMPH, Mean Wind SpeedMPH, Max Gust SpeedMPH,PrecipitationIn, CloudCover, Events, WindDirDegrees
2013-1-1,10,0,-9,1,-6,-17,78,72,57,30.19,30.13,30.01,,,,5,0,,0.00,7,Snow,343
2013-1-2,10,-4,-18,1,-10,-27,84,72,61,30.32,30.21,30.16,,,,6,0,,0.00,4,Snow,80
2013-1-3,1,-12,-25,-6,-23,-35,78,69,63,30.44,30.38,30.31,,,,0,0,,0.00,3,Snow,-1
2013-1-4,0,-12,-23,-15,-22,-33,77,65,50,30.40,30.28,30.22,,,,0,0,,0.00,0,,-1
2013-1-5,-2,-16,-31,-15,-27,-40,77,64,55,30.48,30.40,30.28,,,,5,0,,0.00,0,,295
2013-1-6,-7,-19,-31,-17,-27,-40,71,65,56,30.46,30.32,30.18,,,,4,0,,0.00,0,Snow,250
2013-1-7,3,-10,-22,-9,-20,-31,77,66,55,30.24,30.15,30.08,,,,5,0,,0.00,0,Snow,14
2013-1-8,17,2,-13,5,-7,-18,85,67,49,30.44,30.21,30.08,,,,6,0,,0.00,5,,137
2013-1-9,12,0,-13,3,-9,-18,85,74,65,30.50,30.38,30.20,,,,5,1,,0.00,1,Snow,103
2013-1-10,12,2,-9,3,-7,-17,85,77,57,30.19,29.87,29.55,,,,5,0,,0.00,4,Snow,160
2013-1-11,26,10,-5,12,1,-11,92,64,33,29.77,29.54,29.36,,,,28,5,43,0.01,6,Snow,264
2013-1-12,8,-6,-20,-4,-13,-27,84,73,56,29.86,29.81,29.77,,,,5,1,,0.00,6,Snow,74
2013-1-13,1,-6,-13,-8,-13,-18,84,72,55,29.93,29.87,29.83,,,,5,0,,0.00,8,Snow,5
2013-1-14,-4,-16,-29,-17,-26,-38,77,67,50,30.11,30.01,29.93,,,,4,0,,0.00,2,Snow,14
2013-1-15,1,-16,-32,-6,-20,-40,78,67,55,30.40,30.28,30.12,,,,0,0,,0.00,7,Snow,-1
2013-1-16,14,2,-9,3,-3,-17,85,72,57,30.53,30.44,30.40,,,,4,0,,0.00,4,Snow,134
2013-1-17,8,-6,-20,-4,-15,-27,85,73,57,30.62,30.54,30.48,,,,0,0,,0.00,2,Snow,-1
2013-1-18,10,-6,-22,1,-16,-27,85,72,57,30.52,30.44,30.36,,,,7,0,,0.00,2,Snow,109
2013-1-19,8,-7,-22,-2,-15,-27,84,70,57,30.54,30.44,30.36,,,,7,1,,0.00,0,Snow,62
2013-1-20,-13,-18,-22,-17,-23,-27,84,73,69,30.45,30.42,30.40,,,,4,0,,0.00,0,,258
2013-1-21,,,,,,,,,,,,,,,,,,,,,,
2013-1-22,,,,,,,,,,,,,,,,,,,,,,
2013-1-23,10,4,-2,1,-3,-8,78,74,62,30.39,30.38,30.38,,,,4,0,,0.00,0,,10
2013-1-24,41,16,-9,30,7,-17,93,75,49,30.37,30.30,30.20,,,,14,1,22,0.00,4,Snow,295
2013-1-25,37,34,30,32,30,27,93,89,75,30.31,30.25,30.18,,,,5,1,,0.00,8,,47
2013-1-26,37,34,32,32,30,27,100,82,65,30.18,30.00,29.81,,,,13,2,16,0.05,5,Rain-Snow,217
2013-1-27,44,36,26,32,26,19,100,68,42,29.88,29.82,29.78,,,,25,6,34,0.01,4,Rain-Snow,233
2013-1-28,33,25,17,28,20,7,93,80,58,29.81,29.72,29.66,,,,15,4,20,0.03,8,Snow,13
2013-1-29,17,5,-9,12,3,-15,93,73,53,29.92,29.77,29.70,,,,6,1,,0.00,5,Snow,50
2013-1-30,28,8,-13,19,6,-18,86,77,63,30.02,29.96,29.90,,,,22,4,28,0.01,8,Snow,235
2013-1-31,33,26,19,21,18,14,86,67,51,30.25,30.15,30.00,,,,22,11,30,0.00,8,Snow,251